sensor_id;sensor_type;location;lat;lon;timestamp;temperature;humidity
356;DHT22;62514;48.112;11.566;2024-02-26T00:00:41;3.00;17.20
356;DHT22;62514;48.112;11.566;2024-02-26T00:03:06;3.00;16.50
356;DHT22;62514;48.112;11.566;2024-02-26T00:05:32;3.00;17.00
356;DHT22;62514;48.112;11.566;2024-02-26T00:07:58;3.10;16.60
356;DHT22;62514;48.112;11.566;2024-02-26T00:10:24;3.10;16.10
356;DHT22;62514;48.112;11.566;2024-02-26T00:12:50;3.10;15.70
356;DHT22;62514;48.112;11.566;2024-02-26T00:15:16;3.10;15.70
356;DHT22;62514;48.112;11.566;2024-02-26T00:17:42;3.00;15.60
356;DHT22;62514;48.112;11.566;2024-02-26T00:20:10;3.10;15.70
356;DHT22;62514;48.112;11.566;2024-02-26T00:22:36;3.00;15.70
356;DHT22;62514;48.112;11.566;2024-02-26T00:25:04;3.00;15.40
356;DHT22;62514;48.112;11.566;2024-02-26T00:27:30;2.90;16.40
356;DHT22;62514;48.112;11.566;2024-02-26T00:29:56;2.80;16.80
356;DHT22;62514;48.112;11.566;2024-02-26T00:32:22;2.70;17.40
356;DHT22;62514;48.112;11.566;2024-02-26T00:34:48;2.60;17.80
356;DHT22;62514;48.112;11.566;2024-02-26T00:37:14;2.70;18.20
356;DHT22;62514;48.112;11.566;2024-02-26T00:39:39;2.50;18.60
356;DHT22;62514;48.112;11.566;2024-02-26T00:42:05;2.40;19.00
356;DHT22;62514;48.112;11.566;2024-02-26T00:44:31;2.40;19.40
356;DHT22;62514;48.112;11.566;2024-02-26T00:46:57;2.40;19.50
356;DHT22;62514;48.112;11.566;2024-02-26T00:49:23;2.30;20.00
356;DHT22;62514;48.112;11.566;2024-02-26T00:51:49;2.30;20.30
356;DHT22;62514;48.112;11.566;2024-02-26T00:54:15;2.20;20.50
356;DHT22;62514;48.112;11.566;2024-02-26T00:56:41;2.20;20.70
356;DHT22;62514;48.112;11.566;2024-02-26T00:59:07;2.20;20.80
356;DHT22;62514;48.112;11.566;2024-02-26T01:01:33;2.10;20.80
356;DHT22;62514;48.112;11.566;2024-02-26T01:03:59;2.00;20.80
356;DHT22;62514;48.112;11.566;2024-02-26T01:06:24;2.00;21.20
356;DHT22;62514;48.112;11.566;2024-02-26T01:08:50;2.00;20.80
356;DHT22;62514;48.112;11.566;2024-02-26T01:11:16;1.90;21.10
356;DHT22;62514;48.112;11.566;2024-02-26T01:13:42;1.70;22.70
356;DHT22;62514;48.112;11.566;2024-02-26T01:16:08;1.70;23.50
356;DHT22;62514;48.112;11.566;2024-02-26T01:18:36;1.60;23.40
356;DHT22;62514;48.112;11.566;2024-02-26T01:21:02;1.70;23.50
356;DHT22;62514;48.112;11.566;2024-02-26T01:23:30;1.70;23.50
356;DHT22;62514;48.112;11.566;2024-02-26T01:25:56;1.60;23.40
356;DHT22;62514;48.112;11.566;2024-02-26T01:28:22;1.60;23.40
356;DHT22;62514;48.112;11.566;2024-02-26T01:30:48;1.60;23.70
356;DHT22;62514;48.112;11.566;2024-02-26T01:33:14;1.60;24.10
356;DHT22;62514;48.112;11.566;2024-02-26T01:35:40;1.60;24.30
356;DHT22;62514;48.112;11.566;2024-02-26T01:38:06;1.50;24.10
356;DHT22;62514;48.112;11.566;2024-02-26T01:40:32;1.50;24.40
356;DHT22;62514;48.112;11.566;2024-02-26T01:42:59;1.40;23.60
356;DHT22;62514;48.112;11.566;2024-02-26T01:45:25;1.40;24.20
356;DHT22;62514;48.112;11.566;2024-02-26T01:47:51;1.50;24.30
356;DHT22;62514;48.112;11.566;2024-02-26T01:50:18;1.40;23.80
356;DHT22;62514;48.112;11.566;2024-02-26T01:52:50;1.40;24.20
356;DHT22;62514;48.112;11.566;2024-02-26T01:55:18;1.40;23.50
356;DHT22;62514;48.112;11.566;2024-02-26T01:57:45;1.40;23.50
356;DHT22;62514;48.112;11.566;2024-02-26T02:00:13;1.40;23.40
356;DHT22;62514;48.112;11.566;2024-02-26T02:02:40;1.50;23.40
356;DHT22;62514;48.112;11.566;2024-02-26T02:05:08;1.50;23.40
356;DHT22;62514;48.112;11.566;2024-02-26T02:07:35;1.50;23.40
356;DHT22;62514;48.112;11.566;2024-02-26T02:10:01;1.50;23.40
356;DHT22;62514;48.112;11.566;2024-02-26T02:12:28;1.50;23.40
356;DHT22;62514;48.112;11.566;2024-02-26T02:14:54;1.50;23.40
356;DHT22;62514;48.112;11.566;2024-02-26T02:17:20;1.40;23.30
356;DHT22;62514;48.112;11.566;2024-02-26T02:19:46;1.40;23.90
356;DHT22;62514;48.112;11.566;2024-02-26T02:22:12;1.20;23.30
356;DHT22;62514;48.112;11.566;2024-02-26T02:24:38;1.30;23.40
356;DHT22;62514;48.112;11.566;2024-02-26T02:27:05;1.30;23.30
356;DHT22;62514;48.112;11.566;2024-02-26T02:29:31;1.30;23.40
356;DHT22;62514;48.112;11.566;2024-02-26T02:31:57;1.30;23.30
356;DHT22;62514;48.112;11.566;2024-02-26T02:34:24;1.30;23.40
356;DHT22;62514;48.112;11.566;2024-02-26T02:36:53;1.30;23.30
356;DHT22;62514;48.112;11.566;2024-02-26T02:39:20;1.30;23.40
356;DHT22;62514;48.112;11.566;2024-02-26T02:41:46;1.30;23.30
356;DHT22;62514;48.112;11.566;2024-02-26T02:44:12;1.30;23.90
356;DHT22;62514;48.112;11.566;2024-02-26T02:46:39;1.30;23.30
356;DHT22;62514;48.112;11.566;2024-02-26T02:49:08;1.30;23.30
356;DHT22;62514;48.112;11.566;2024-02-26T02:51:35;1.30;23.30
356;DHT22;62514;48.112;11.566;2024-02-26T02:54:01;1.30;23.00
356;DHT22;62514;48.112;11.566;2024-02-26T02:56:27;1.40;22.80
356;DHT22;62514;48.112;11.566;2024-02-26T02:58:53;1.40;23.00
356;DHT22;62514;48.112;11.566;2024-02-26T03:01:19;1.40;22.20
356;DHT22;62514;48.112;11.566;2024-02-26T03:03:45;1.40;21.90
356;DHT22;62514;48.112;11.566;2024-02-26T03:06:11;1.30;21.70
356;DHT22;62514;48.112;11.566;2024-02-26T03:08:37;1.30;21.70
356;DHT22;62514;48.112;11.566;2024-02-26T03:11:05;1.30;21.90
356;DHT22;62514;48.112;11.566;2024-02-26T03:13:31;1.30;21.70
356;DHT22;62514;48.112;11.566;2024-02-26T03:15:57;1.30;21.70
356;DHT22;62514;48.112;11.566;2024-02-26T03:18:23;1.40;21.50
356;DHT22;62514;48.112;11.566;2024-02-26T03:20:49;1.40;21.20
356;DHT22;62514;48.112;11.566;2024-02-26T03:23:15;1.40;21.00
356;DHT22;62514;48.112;11.566;2024-02-26T03:25:44;1.40;21.30
356;DHT22;62514;48.112;11.566;2024-02-26T03:28:11;1.50;21.50
356;DHT22;62514;48.112;11.566;2024-02-26T03:30:38;1.50;21.20
356;DHT22;62514;48.112;11.566;2024-02-26T03:33:04;1.50;20.60
356;DHT22;62514;48.112;11.566;2024-02-26T03:35:30;1.50;20.60
356;DHT22;62514;48.112;11.566;2024-02-26T03:37:56;1.60;21.10
356;DHT22;62514;48.112;11.566;2024-02-26T03:40:22;1.50;20.60
356;DHT22;62514;48.112;11.566;2024-02-26T03:42:48;1.40;20.40
356;DHT22;62514;48.112;11.566;2024-02-26T03:45:14;1.40;20.50
356;DHT22;62514;48.112;11.566;2024-02-26T03:47:40;1.40;20.50
356;DHT22;62514;48.112;11.566;2024-02-26T03:50:07;1.30;20.50
356;DHT22;62514;48.112;11.566;2024-02-26T03:52:33;1.20;20.50
356;DHT22;62514;48.112;11.566;2024-02-26T03:55:00;1.30;20.70
356;DHT22;62514;48.112;11.566;2024-02-26T03:57:25;1.20;21.00
356;DHT22;62514;48.112;11.566;2024-02-26T03:59:51;1.20;21.40
356;DHT22;62514;48.112;11.566;2024-02-26T04:02:17;1.10;21.80
356;DHT22;62514;48.112;11.566;2024-02-26T04:04:47;1.10;22.30
356;DHT22;62514;48.112;11.566;2024-02-26T04:07:13;1.20;23.20
356;DHT22;62514;48.112;11.566;2024-02-26T04:09:39;1.20;23.30
356;DHT22;62514;48.112;11.566;2024-02-26T04:12:05;1.20;22.20
356;DHT22;62514;48.112;11.566;2024-02-26T04:14:31;1.10;22.30
356;DHT22;62514;48.112;11.566;2024-02-26T04:16:57;1.00;23.00
356;DHT22;62514;48.112;11.566;2024-02-26T04:19:23;1.00;23.20
356;DHT22;62514;48.112;11.566;2024-02-26T04:21:49;1.10;23.30
356;DHT22;62514;48.112;11.566;2024-02-26T04:24:15;1.10;23.30
356;DHT22;62514;48.112;11.566;2024-02-26T04:26:41;1.10;22.90
356;DHT22;62514;48.112;11.566;2024-02-26T04:29:07;0.90;23.20
356;DHT22;62514;48.112;11.566;2024-02-26T04:31:33;0.90;23.40
356;DHT22;62514;48.112;11.566;2024-02-26T04:33:59;0.90;23.70
356;DHT22;62514;48.112;11.566;2024-02-26T04:36:25;0.90;23.30
356;DHT22;62514;48.112;11.566;2024-02-26T04:38:51;0.80;23.50
356;DHT22;62514;48.112;11.566;2024-02-26T04:41:20;0.80;23.60
356;DHT22;62514;48.112;11.566;2024-02-26T04:43:46;0.80;24.00
356;DHT22;62514;48.112;11.566;2024-02-26T04:46:12;0.80;24.10
356;DHT22;62514;48.112;11.566;2024-02-26T04:48:38;0.70;24.20
356;DHT22;62514;48.112;11.566;2024-02-26T04:51:04;0.80;23.90
356;DHT22;62514;48.112;11.566;2024-02-26T04:53:30;0.80;24.20
356;DHT22;62514;48.112;11.566;2024-02-26T04:55:56;0.70;24.10
356;DHT22;62514;48.112;11.566;2024-02-26T04:58:23;0.70;24.40
356;DHT22;62514;48.112;11.566;2024-02-26T05:00:49;0.70;24.90
356;DHT22;62514;48.112;11.566;2024-02-26T05:03:15;0.80;24.60
356;DHT22;62514;48.112;11.566;2024-02-26T05:05:42;0.70;24.20
356;DHT22;62514;48.112;11.566;2024-02-26T05:08:09;0.80;24.60
356;DHT22;62514;48.112;11.566;2024-02-26T05:10:35;0.80;23.20
356;DHT22;62514;48.112;11.566;2024-02-26T05:13:05;0.70;23.10
356;DHT22;62514;48.112;11.566;2024-02-26T05:15:31;0.60;24.50
356;DHT22;62514;48.112;11.566;2024-02-26T05:17:58;0.70;24.70
356;DHT22;62514;48.112;11.566;2024-02-26T05:20:23;0.80;24.60
356;DHT22;62514;48.112;11.566;2024-02-26T05:22:49;0.80;23.70
356;DHT22;62514;48.112;11.566;2024-02-26T05:25:16;0.70;23.10
356;DHT22;62514;48.112;11.566;2024-02-26T05:27:43;0.60;25.20
356;DHT22;62514;48.112;11.566;2024-02-26T05:30:10;0.50;26.60
356;DHT22;62514;48.112;11.566;2024-02-26T05:32:36;0.50;27.00
356;DHT22;62514;48.112;11.566;2024-02-26T05:35:03;0.50;27.80
356;DHT22;62514;48.112;11.566;2024-02-26T05:37:30;0.50;28.20
356;DHT22;62514;48.112;11.566;2024-02-26T05:39:56;0.50;28.60
356;DHT22;62514;48.112;11.566;2024-02-26T05:42:22;0.50;28.60
356;DHT22;62514;48.112;11.566;2024-02-26T05:44:48;0.50;28.50
356;DHT22;62514;48.112;11.566;2024-02-26T05:47:13;0.50;27.00
356;DHT22;62514;48.112;11.566;2024-02-26T05:49:40;0.50;27.50
356;DHT22;62514;48.112;11.566;2024-02-26T05:52:06;0.50;27.00
356;DHT22;62514;48.112;11.566;2024-02-26T05:54:32;0.50;27.10
356;DHT22;62514;48.112;11.566;2024-02-26T05:56:58;0.60;27.40
356;DHT22;62514;48.112;11.566;2024-02-26T05:59:24;0.70;26.70
356;DHT22;62514;48.112;11.566;2024-02-26T06:01:50;0.80;25.90
356;DHT22;62514;48.112;11.566;2024-02-26T06:04:16;0.90;25.30
356;DHT22;62514;48.112;11.566;2024-02-26T06:06:45;1.00;25.60
356;DHT22;62514;48.112;11.566;2024-02-26T06:09:13;1.10;24.70
356;DHT22;62514;48.112;11.566;2024-02-26T06:11:39;1.20;23.50
356;DHT22;62514;48.112;11.566;2024-02-26T06:14:05;1.10;23.30
356;DHT22;62514;48.112;11.566;2024-02-26T06:16:31;1.10;23.40
356;DHT22;62514;48.112;11.566;2024-02-26T06:18:58;1.30;23.70
356;DHT22;62514;48.112;11.566;2024-02-26T06:21:25;1.40;23.30
356;DHT22;62514;48.112;11.566;2024-02-26T06:23:52;1.30;21.80
356;DHT22;62514;48.112;11.566;2024-02-26T06:26:17;1.40;22.10
356;DHT22;62514;48.112;11.566;2024-02-26T06:28:44;1.50;22.40
356;DHT22;62514;48.112;11.566;2024-02-26T06:31:10;1.60;21.20
356;DHT22;62514;48.112;11.566;2024-02-26T06:33:36;1.60;20.60
356;DHT22;62514;48.112;11.566;2024-02-26T06:36:02;1.70;20.80
356;DHT22;62514;48.112;11.566;2024-02-26T06:38:28;1.80;20.60
356;DHT22;62514;48.112;11.566;2024-02-26T06:40:54;1.80;20.10
356;DHT22;62514;48.112;11.566;2024-02-26T06:43:20;1.90;20.60
356;DHT22;62514;48.112;11.566;2024-02-26T06:45:46;2.10;20.00
356;DHT22;62514;48.112;11.566;2024-02-26T06:48:12;2.30;19.40
356;DHT22;62514;48.112;11.566;2024-02-26T06:50:38;2.40;18.40
356;DHT22;62514;48.112;11.566;2024-02-26T06:53:04;2.50;18.50
356;DHT22;62514;48.112;11.566;2024-02-26T06:55:31;2.40;17.80
356;DHT22;62514;48.112;11.566;2024-02-26T06:57:56;2.30;18.20
356;DHT22;62514;48.112;11.566;2024-02-26T07:00:22;2.30;18.50
356;DHT22;62514;48.112;11.566;2024-02-26T07:02:49;2.40;18.60
356;DHT22;62514;48.112;11.566;2024-02-26T07:05:14;2.60;18.60
356;DHT22;62514;48.112;11.566;2024-02-26T07:07:41;2.70;18.70
356;DHT22;62514;48.112;11.566;2024-02-26T07:10:07;2.90;18.80
356;DHT22;62514;48.112;11.566;2024-02-26T07:12:33;3.00;17.90
356;DHT22;62514;48.112;11.566;2024-02-26T07:14:59;3.10;17.70
356;DHT22;62514;48.112;11.566;2024-02-26T07:17:25;3.30;17.00
356;DHT22;62514;48.112;11.566;2024-02-26T07:19:51;3.30;16.10
356;DHT22;62514;48.112;11.566;2024-02-26T07:22:17;3.20;16.60
356;DHT22;62514;48.112;11.566;2024-02-26T07:24:42;3.10;17.80
356;DHT22;62514;48.112;11.566;2024-02-26T07:27:08;3.20;17.30
356;DHT22;62514;48.112;11.566;2024-02-26T07:29:34;3.20;17.20
356;DHT22;62514;48.112;11.566;2024-02-26T07:32:00;3.50;17.30
356;DHT22;62514;48.112;11.566;2024-02-26T07:34:26;3.70;16.90
356;DHT22;62514;48.112;11.566;2024-02-26T07:36:56;4.00;16.30
356;DHT22;62514;48.112;11.566;2024-02-26T07:39:22;4.10;15.50
356;DHT22;62514;48.112;11.566;2024-02-26T07:41:48;4.00;16.30
356;DHT22;62514;48.112;11.566;2024-02-26T07:44:17;4.20;16.70
356;DHT22;62514;48.112;11.566;2024-02-26T07:46:43;4.40;15.90
356;DHT22;62514;48.112;11.566;2024-02-26T07:49:09;4.50;14.70
356;DHT22;62514;48.112;11.566;2024-02-26T07:51:35;4.70;14.80
356;DHT22;62514;48.112;11.566;2024-02-26T07:54:01;4.90;14.90
356;DHT22;62514;48.112;11.566;2024-02-26T07:56:27;5.10;13.60
356;DHT22;62514;48.112;11.566;2024-02-26T07:58:53;5.20;11.90
356;DHT22;62514;48.112;11.566;2024-02-26T08:01:19;5.20;12.20
356;DHT22;62514;48.112;11.566;2024-02-26T08:03:45;5.10;12.60
356;DHT22;62514;48.112;11.566;2024-02-26T08:06:11;5.30;12.70
356;DHT22;62514;48.112;11.566;2024-02-26T08:08:37;5.40;12.70
356;DHT22;62514;48.112;11.566;2024-02-26T08:11:03;5.50;12.20
356;DHT22;62514;48.112;11.566;2024-02-26T08:13:29;5.70;12.00
356;DHT22;62514;48.112;11.566;2024-02-26T08:15:55;5.70;11.50
356;DHT22;62514;48.112;11.566;2024-02-26T08:18:21;5.70;12.10
356;DHT22;62514;48.112;11.566;2024-02-26T08:20:47;5.80;12.10
356;DHT22;62514;48.112;11.566;2024-02-26T08:23:14;6.10;11.70
356;DHT22;62514;48.112;11.566;2024-02-26T08:25:40;6.40;10.40
356;DHT22;62514;48.112;11.566;2024-02-26T08:28:06;6.70;6.00
356;DHT22;62514;48.112;11.566;2024-02-26T08:30:32;7.00;1.00
356;DHT22;62514;48.112;11.566;2024-02-26T08:33:00;7.10;1.00
356;DHT22;62514;48.112;11.566;2024-02-26T08:35:26;7.20;1.00
356;DHT22;62514;48.112;11.566;2024-02-26T08:37:51;7.30;1.00
356;DHT22;62514;48.112;11.566;2024-02-26T08:40:17;7.60;1.00
356;DHT22;62514;48.112;11.566;2024-02-26T08:42:45;7.90;1.00
356;DHT22;62514;48.112;11.566;2024-02-26T08:45:11;8.30;1.00
356;DHT22;62514;48.112;11.566;2024-02-26T08:47:39;8.50;1.00
356;DHT22;62514;48.112;11.566;2024-02-26T08:50:05;8.70;1.00
356;DHT22;62514;48.112;11.566;2024-02-26T08:52:32;8.90;1.00
356;DHT22;62514;48.112;11.566;2024-02-26T08:54:58;9.00;1.00
356;DHT22;62514;48.112;11.566;2024-02-26T08:57:25;8.90;1.00
356;DHT22;62514;48.112;11.566;2024-02-26T08:59:52;8.90;1.00
356;DHT22;62514;48.112;11.566;2024-02-26T09:02:18;8.80;1.00
356;DHT22;62514;48.112;11.566;2024-02-26T09:04:45;8.80;1.00
356;DHT22;62514;48.112;11.566;2024-02-26T09:07:11;8.80;1.00
356;DHT22;62514;48.112;11.566;2024-02-26T09:09:37;8.60;1.00
356;DHT22;62514;48.112;11.566;2024-02-26T09:12:03;8.50;1.00
356;DHT22;62514;48.112;11.566;2024-02-26T09:14:29;8.60;1.00
356;DHT22;62514;48.112;11.566;2024-02-26T09:16:55;8.60;1.00
356;DHT22;62514;48.112;11.566;2024-02-26T09:19:21;8.70;1.00
356;DHT22;62514;48.112;11.566;2024-02-26T09:21:47;8.60;1.00
356;DHT22;62514;48.112;11.566;2024-02-26T09:24:13;8.80;1.00
356;DHT22;62514;48.112;11.566;2024-02-26T09:26:39;9.00;1.00
356;DHT22;62514;48.112;11.566;2024-02-26T09:29:05;9.10;1.00
356;DHT22;62514;48.112;11.566;2024-02-26T09:31:31;9.30;1.00
356;DHT22;62514;48.112;11.566;2024-02-26T09:33:57;9.40;1.00
356;DHT22;62514;48.112;11.566;2024-02-26T09:36:23;9.40;1.00
356;DHT22;62514;48.112;11.566;2024-02-26T09:38:49;9.60;1.00
356;DHT22;62514;48.112;11.566;2024-02-26T09:41:15;9.80;1.00
356;DHT22;62514;48.112;11.566;2024-02-26T09:43:44;10.20;1.00
356;DHT22;62514;48.112;11.566;2024-02-26T09:46:13;10.50;1.00
356;DHT22;62514;48.112;11.566;2024-02-26T09:48:42;10.90;1.00
356;DHT22;62514;48.112;11.566;2024-02-26T09:51:11;11.30;88.70
356;DHT22;62514;48.112;11.566;2024-02-26T09:53:38;11.00;99.90
356;DHT22;62514;48.112;11.566;2024-02-26T09:56:08;11.20;99.90
356;DHT22;62514;48.112;11.566;2024-02-26T09:58:36;11.40;99.90
356;DHT22;62514;48.112;11.566;2024-02-26T10:01:07;12.00;99.90
356;DHT22;62514;48.112;11.566;2024-02-26T10:03:39;12.30;99.90
356;DHT22;62514;48.112;11.566;2024-02-26T10:06:08;11.90;99.90
356;DHT22;62514;48.112;11.566;2024-02-26T10:08:35;11.80;99.90
356;DHT22;62514;48.112;11.566;2024-02-26T10:11:04;11.70;99.90
356;DHT22;62514;48.112;11.566;2024-02-26T10:13:30;11.60;99.90
356;DHT22;62514;48.112;11.566;2024-02-26T10:15:56;11.60;99.90
356;DHT22;62514;48.112;11.566;2024-02-26T10:18:23;11.60;99.90
356;DHT22;62514;48.112;11.566;2024-02-26T10:21:00;11.20;99.90
356;DHT22;62514;48.112;11.566;2024-02-26T10:23:27;11.00;99.90
356;DHT22;62514;48.112;11.566;2024-02-26T10:25:54;10.80;99.90
356;DHT22;62514;48.112;11.566;2024-02-26T10:28:20;10.80;99.90
356;DHT22;62514;48.112;11.566;2024-02-26T10:30:46;10.70;99.90
356;DHT22;62514;48.112;11.566;2024-02-26T10:33:12;10.70;99.90
356;DHT22;62514;48.112;11.566;2024-02-26T10:35:48;10.70;99.90
356;DHT22;62514;48.112;11.566;2024-02-26T10:38:14;11.00;99.90
356;DHT22;62514;48.112;11.566;2024-02-26T10:40:43;11.00;99.90
356;DHT22;62514;48.112;11.566;2024-02-26T10:43:08;10.80;99.90
356;DHT22;62514;48.112;11.566;2024-02-26T10:45:34;10.90;99.90
356;DHT22;62514;48.112;11.566;2024-02-26T10:48:02;11.30;99.90
356;DHT22;62514;48.112;11.566;2024-02-26T10:50:28;11.60;99.90
356;DHT22;62514;48.112;11.566;2024-02-26T10:52:55;12.00;99.90
356;DHT22;62514;48.112;11.566;2024-02-26T10:55:22;12.10;99.90
356;DHT22;62514;48.112;11.566;2024-02-26T10:57:51;12.30;99.90
356;DHT22;62514;48.112;11.566;2024-02-26T11:00:18;12.80;99.90
356;DHT22;62514;48.112;11.566;2024-02-26T11:02:45;13.50;99.90
356;DHT22;62514;48.112;11.566;2024-02-26T11:05:12;14.10;99.90
356;DHT22;62514;48.112;11.566;2024-02-26T11:07:39;14.70;99.90
356;DHT22;62514;48.112;11.566;2024-02-26T11:10:07;15.40;99.90
356;DHT22;62514;48.112;11.566;2024-02-26T11:12:34;16.00;99.90
356;DHT22;62514;48.112;11.566;2024-02-26T11:15:04;16.30;99.90
356;DHT22;62514;48.112;11.566;2024-02-26T11:17:30;16.50;99.90
356;DHT22;62514;48.112;11.566;2024-02-26T11:19:58;16.80;99.90
356;DHT22;62514;48.112;11.566;2024-02-26T11:22:25;17.20;99.90
356;DHT22;62514;48.112;11.566;2024-02-26T11:24:55;17.10;99.90
356;DHT22;62514;48.112;11.566;2024-02-26T11:27:50;16.70;99.90
356;DHT22;62514;48.112;11.566;2024-02-26T11:30:17;17.10;99.90
356;DHT22;62514;48.112;11.566;2024-02-26T11:32:45;17.70;99.90
356;DHT22;62514;48.112;11.566;2024-02-26T11:35:15;17.80;99.90
356;DHT22;62514;48.112;11.566;2024-02-26T11:37:52;17.60;99.90
356;DHT22;62514;48.112;11.566;2024-02-26T11:40:18;18.30;99.90
356;DHT22;62514;48.112;11.566;2024-02-26T11:42:45;18.30;99.90
356;DHT22;62514;48.112;11.566;2024-02-26T11:48:16;18.40;1.00
356;DHT22;62514;48.112;11.566;2024-02-26T11:50:50;18.00;1.40
356;DHT22;62514;48.112;11.566;2024-02-26T12:04:16;23.00;1.00
356;DHT22;62514;48.112;11.566;2024-02-26T12:06:50;23.40;1.00
356;DHT22;62514;48.112;11.566;2024-02-26T12:09:41;23.50;1.00
356;DHT22;62514;48.112;11.566;2024-02-26T12:12:17;24.70;1.00
356;DHT22;62514;48.112;11.566;2024-02-26T12:14:51;25.70;1.00
356;DHT22;62514;48.112;11.566;2024-02-26T12:17:23;25.70;1.00
356;DHT22;62514;48.112;11.566;2024-02-26T12:19:50;24.90;1.00
356;DHT22;62514;48.112;11.566;2024-02-26T12:22:17;22.50;1.00
356;DHT22;62514;48.112;11.566;2024-02-26T12:24:43;21.80;1.00
356;DHT22;62514;48.112;11.566;2024-02-26T12:27:09;20.60;1.00
356;DHT22;62514;48.112;11.566;2024-02-26T12:29:35;20.40;1.00
356;DHT22;62514;48.112;11.566;2024-02-26T12:32:03;21.10;1.00
356;DHT22;62514;48.112;11.566;2024-02-26T12:34:30;23.20;1.00
356;DHT22;62514;48.112;11.566;2024-02-26T12:36:56;25.10;1.00
356;DHT22;62514;48.112;11.566;2024-02-26T12:39:23;26.20;1.00
356;DHT22;62514;48.112;11.566;2024-02-26T12:41:49;27.00;1.00
356;DHT22;62514;48.112;11.566;2024-02-26T12:44:24;25.80;1.00
356;DHT22;62514;48.112;11.566;2024-02-26T12:46:50;24.40;1.00
356;DHT22;62514;48.112;11.566;2024-02-26T12:49:16;21.50;1.00
356;DHT22;62514;48.112;11.566;2024-02-26T12:51:44;19.10;1.00
356;DHT22;62514;48.112;11.566;2024-02-26T12:54:11;18.20;1.00
356;DHT22;62514;48.112;11.566;2024-02-26T12:56:38;19.80;1.00
356;DHT22;62514;48.112;11.566;2024-02-26T12:59:05;21.90;1.00
356;DHT22;62514;48.112;11.566;2024-02-26T13:01:31;23.60;1.00
356;DHT22;62514;48.112;11.566;2024-02-26T13:03:57;25.30;1.00
356;DHT22;62514;48.112;11.566;2024-02-26T13:06:26;26.60;1.00
356;DHT22;62514;48.112;11.566;2024-02-26T13:08:57;26.10;1.00
356;DHT22;62514;48.112;11.566;2024-02-26T13:11:28;24.80;1.00
356;DHT22;62514;48.112;11.566;2024-02-26T13:13:55;25.00;1.00
356;DHT22;62514;48.112;11.566;2024-02-26T13:16:24;24.60;1.00
356;DHT22;62514;48.112;11.566;2024-02-26T13:18:50;25.20;1.00
356;DHT22;62514;48.112;11.566;2024-02-26T13:21:18;25.90;1.00
356;DHT22;62514;48.112;11.566;2024-02-26T13:23:48;26.50;1.00
356;DHT22;62514;48.112;11.566;2024-02-26T13:26:14;26.50;1.00
356;DHT22;62514;48.112;11.566;2024-02-26T13:28:41;25.50;1.00
356;DHT22;62514;48.112;11.566;2024-02-26T13:31:08;24.40;1.00
356;DHT22;62514;48.112;11.566;2024-02-26T13:33:34;24.30;1.00
356;DHT22;62514;48.112;11.566;2024-02-26T13:36:00;24.10;1.00
356;DHT22;62514;48.112;11.566;2024-02-26T13:38:27;23.70;1.00
356;DHT22;62514;48.112;11.566;2024-02-26T13:40:56;22.90;1.00
356;DHT22;62514;48.112;11.566;2024-02-26T13:43:22;21.60;1.00
356;DHT22;62514;48.112;11.566;2024-02-26T13:45:48;20.00;1.00
356;DHT22;62514;48.112;11.566;2024-02-26T13:48:15;19.70;1.00
356;DHT22;62514;48.112;11.566;2024-02-26T13:50:42;19.90;1.00
356;DHT22;62514;48.112;11.566;2024-02-26T13:53:14;19.90;1.00
356;DHT22;62514;48.112;11.566;2024-02-26T13:55:41;19.90;1.00
356;DHT22;62514;48.112;11.566;2024-02-26T13:58:12;19.50;1.00
356;DHT22;62514;48.112;11.566;2024-02-26T14:00:39;19.10;1.00
356;DHT22;62514;48.112;11.566;2024-02-26T14:03:05;18.40;1.00
356;DHT22;62514;48.112;11.566;2024-02-26T14:05:31;17.80;1.00
356;DHT22;62514;48.112;11.566;2024-02-26T14:07:57;17.40;1.00
356;DHT22;62514;48.112;11.566;2024-02-26T14:10:23;17.10;1.00
356;DHT22;62514;48.112;11.566;2024-02-26T14:12:49;17.00;1.00
356;DHT22;62514;48.112;11.566;2024-02-26T14:15:15;16.10;1.00
356;DHT22;62514;48.112;11.566;2024-02-26T14:17:41;15.40;1.00
356;DHT22;62514;48.112;11.566;2024-02-26T14:20:09;14.50;1.00
356;DHT22;62514;48.112;11.566;2024-02-26T14:22:35;14.40;1.00
356;DHT22;62514;48.112;11.566;2024-02-26T14:25:00;14.00;1.00
356;DHT22;62514;48.112;11.566;2024-02-26T14:27:26;13.80;1.00
356;DHT22;62514;48.112;11.566;2024-02-26T14:29:52;13.50;1.00
356;DHT22;62514;48.112;11.566;2024-02-26T14:32:20;13.50;1.00
356;DHT22;62514;48.112;11.566;2024-02-26T14:34:46;13.00;1.00
356;DHT22;62514;48.112;11.566;2024-02-26T14:37:12;13.00;1.00
356;DHT22;62514;48.112;11.566;2024-02-26T14:39:38;12.90;1.00
356;DHT22;62514;48.112;11.566;2024-02-26T14:42:04;12.90;1.00
356;DHT22;62514;48.112;11.566;2024-02-26T14:44:30;12.90;1.00
356;DHT22;62514;48.112;11.566;2024-02-26T14:46:58;13.00;1.00
356;DHT22;62514;48.112;11.566;2024-02-26T14:49:24;12.60;1.00
356;DHT22;62514;48.112;11.566;2024-02-26T14:51:50;12.40;1.00
356;DHT22;62514;48.112;11.566;2024-02-26T14:54:15;12.40;1.00
356;DHT22;62514;48.112;11.566;2024-02-26T14:56:41;12.40;1.00
356;DHT22;62514;48.112;11.566;2024-02-26T14:59:07;12.30;1.00
356;DHT22;62514;48.112;11.566;2024-02-26T15:01:33;12.20;1.00
356;DHT22;62514;48.112;11.566;2024-02-26T15:04:00;11.90;1.00
356;DHT22;62514;48.112;11.566;2024-02-26T15:06:26;11.90;1.00
356;DHT22;62514;48.112;11.566;2024-02-26T15:08:52;11.80;99.90
356;DHT22;62514;48.112;11.566;2024-02-26T15:11:18;11.80;99.90
356;DHT22;62514;48.112;11.566;2024-02-26T15:13:44;11.80;99.90
356;DHT22;62514;48.112;11.566;2024-02-26T15:16:19;11.40;99.90
356;DHT22;62514;48.112;11.566;2024-02-26T15:18:48;11.30;99.90
356;DHT22;62514;48.112;11.566;2024-02-26T15:21:14;11.30;99.90
356;DHT22;62514;48.112;11.566;2024-02-26T15:23:43;11.30;99.90
356;DHT22;62514;48.112;11.566;2024-02-26T15:26:10;11.30;99.90
356;DHT22;62514;48.112;11.566;2024-02-26T15:28:36;11.30;99.90
356;DHT22;62514;48.112;11.566;2024-02-26T15:31:02;11.30;99.90
356;DHT22;62514;48.112;11.566;2024-02-26T15:33:28;11.20;99.90
356;DHT22;62514;48.112;11.566;2024-02-26T15:35:54;11.20;99.90
356;DHT22;62514;48.112;11.566;2024-02-26T15:38:20;11.10;99.90
356;DHT22;62514;48.112;11.566;2024-02-26T15:40:46;11.10;99.90
356;DHT22;62514;48.112;11.566;2024-02-26T15:43:13;11.10;99.90
356;DHT22;62514;48.112;11.566;2024-02-26T15:45:39;11.00;99.90
356;DHT22;62514;48.112;11.566;2024-02-26T15:48:05;11.00;99.90
356;DHT22;62514;48.112;11.566;2024-02-26T15:50:31;10.90;99.90
356;DHT22;62514;48.112;11.566;2024-02-26T15:52:57;10.90;99.90
356;DHT22;62514;48.112;11.566;2024-02-26T15:55:24;10.90;99.90
356;DHT22;62514;48.112;11.566;2024-02-26T15:57:50;10.90;99.90
356;DHT22;62514;48.112;11.566;2024-02-26T16:00:16;10.90;99.90
356;DHT22;62514;48.112;11.566;2024-02-26T16:02:42;10.80;99.90
356;DHT22;62514;48.112;11.566;2024-02-26T16:05:09;10.80;99.90
356;DHT22;62514;48.112;11.566;2024-02-26T16:10:06;10.70;99.90
356;DHT22;62514;48.112;11.566;2024-02-26T16:12:40;10.70;99.90